ADDS METAR Data INFO
IDs: Format: Raw Decoded Include TAF

Data at: 0353 UTC 20 Feb 2018

KCAK 200251Z 19014KT 10SM SCT120 OVC200 17/12 A3008 RMK AO2 SLP187 T01720122 53003 $
KCAK 200151Z 20014KT 10SM OVC220 17/12 A3008 RMK AO2 SLP186 T01670122 $
KCAK 200051Z 20012KT 10SM FEW100 OVC200 16/12 A3007 RMK AO2 SLP183 T01610122 $
KCAK 192351Z 19010KT 10SM FEW085 OVC170 15/12 A3007 RMK AO2 SLP185 60011 T01500122 10156 20106 55000 $
KCAK 192251Z 19009KT 10SM FEW043 BKN100 OVC170 14/12 A3006 RMK AO2 SLP184 T01440122 $
KCAK 192151Z 18013KT 9SM FEW043 OVC095 14/12 A3006 RMK AO2 RAE15 SLP182 P0001 T01440122 $
KCAK 192056Z 19011KT 4SM -RA BR SCT019 OVC075 13/12 A3007 RMK AO2 P0001 T01330117 $
KCAK 192051Z 18010KT 2SM -RA BR SCT019 OVC075 13/12 A3007 RMK AO2 SFC VIS 4 RAB02 SLP188 P0008 60010 T01330117 56006 $
KCAK 192024Z 18009KT 2SM RA BR BKN019 BKN065 OVC110 13/11 A3008 RMK AO2 SFC VIS 3 RAB02 BKN019 V SCT P0005 T01330111 $
KCAK 191951Z 20008KT 8SM BKN015 OVC090 13/11 A3008 RMK AO2 RAE24B41E51 SLP191 P0001 T01280111 $
KCAK 191926Z 21009KT 10SM SCT007 OVC014 12/11 A3008 RMK AO2 RAE24 P0001 T01220106 $
KCAK 191851Z 21010KT 9SM -RA BKN007 OVC014 12/11 A3008 RMK AO2 RAE08B45 SLP191 P0001 T01220106 $
KCAK 191751Z 20010KT 8SM -RA OVC005 11/09 A3009 RMK AO2 SLP196 P0008 60063 T01060089 10106 20061 56010 $
KCAK 191658Z 19008KT 4SM -RA BR BKN005 OVC016 10/08 A3010 RMK AO2 P0001 T01000083 $
KCAK 191651Z 19010KT 2SM R23/6000VP6000FT -RA BR BKN006 OVC018 10/08 A3011 RMK AO2 SFC VIS 3 SLP202 RAB12 P0018 T01000083 $
KCAK 191637Z 19010KT 2SM R23/4500VP6000FT RA BR OVC004 10/08 A3011 RMK AO2 RAB12 VIS 1V3 P0012 T01000078 $
KCAK 191551Z 19011KT 8SM BKN004 OVC013 09/07 A3009 RMK AO2 RAE50 SLP198 P0010 T00890072 $
KCAK 191536Z 18009KT 3SM -RA BR FEW004 OVC015 08/07 A3010 RMK AO2 P0009 T00830067 $
KCAK 191451Z 17006KT 2SM RA BR BKN017 OVC028 07/05 A3012 RMK AO2 SLP208 P0015 60027 T00670050 50007 $
KCAK 191351Z 00000KT 2SM R23/4000VP6000FT RA OVC015 07/04 A3013 RMK AO2 SLP212 VIS 1V3 P0011 T00670039 $
KCAK 191333Z 16006KT 3SM R23/4500VP6000FT RA OVC016 07/04 A3011 RMK AO2 P0006 T00670039 $
KCAK 191324Z 00000KT 1 3/4SM R23/2200VP6000FT -RA OVC014 07/04 A3012 RMK AO2 LTG DSNT W PRESRR P0003 T00670039 $
KCAK 191251Z 15006KT 8SM RA OVC011 07/03 A3010 RMK AO2 SLP201 RAB02 P0001 T00670028 $
KCAK 191221Z 19010KT 10SM OVC013 07/03 A3010 RMK AO2 RAB02 P0000 T00670028 $
KCAK 191151Z 19011KT 10SM OVC015 07/01 A3010 RMK AO2 SLP201 T00670006 10067 20011 53000 $
KCAK 191119Z 20013KT 10SM BKN020 06/M01 A3011 RMK AO2 T00611006 $
KCAK 191051Z 18011KT 10SM SCT055 BKN110 04/M02 A3010 RMK AO2 SLP202 T00441017 $
KCAK 190951Z 17010KT 10SM OVC055 04/M02 A3009 RMK AO2 SLP199 T00391022 $
KCAK 190851Z 16008KT 10SM BKN070 03/M03 A3010 RMK AO2 SLP200 T00281028 58008 $
KCAK 190751Z 16011KT 10SM SCT240 02/M03 A3011 RMK AO2 SLP205 T00171033 $
KCAK 190651Z 16011KT 10SM SCT240 02/M03 A3012 RMK AO2 SLP209 T00171033 $
KCAK 190551Z 15013KT 10SM BKN240 02/M03 A3012 RMK AO2 SLP211 T00171033 10028 20011 56029 $
KCAK 190451Z 14012KT 10SM BKN240 02/M03 A3015 RMK AO2 SLP220 T00171033 400610000 $
KCAK 190351Z 14011KT 10SM OVC210 02/M03 A3018 RMK AO2 SLP231 T00171033 $
KCAK 190251Z 14009KT 10SM OVC240 02/M04 A3021 RMK AO2 SLP242 T00171039 58025 $
KCAK 190151Z 15011KT 10SM BKN250 01/M04 A3024 RMK AO2 SLP254 T00111039 $
KCAK 190051Z 15009KT 10SM BKN240 02/M04 A3026 RMK AO2 SLP258 T00171039 $
KCAK 182351Z 14009KT 10SM BKN250 03/M04 A3029 RMK AO2 SLP268 T00281039 10061 20028 58008 $
KCAK 182251Z 15009KT 10SM BKN250 03/M03 A3030 RMK AO2 SLP272 T00331033 $
KCAK 182151Z 17010KT 10SM FEW037 BKN250 05/M03 A3030 RMK AO2 SLP272 T00501028 $
KCAK 182051Z 19010KT 10SM FEW036 BKN250 06/M03 A3031 RMK AO2 SLP276 T00561028 58002 $
KCAK 181951Z 21013KT 10SM FEW035 BKN250 06/M03 A3032 RMK AO2 SLP277 T00561028 $
KCAK 181851Z 20005KT 10SM SCT028 BKN250 05/M03 A3032 RMK AO2 SLP278 T00501033 $
KCAK 181751Z 20005KT 10SM SCT025 BKN250 04/M03 A3032 RMK AO2 SLP279 T00391033 10039 20000 58005 $
KCAK 181651Z 20005KT 10SM SCT025 BKN250 03/M03 A3034 RMK AO2 SLP285 T00281033 $